Time;durP1;ratioP1;P1;durP2;ratioP2;P2;SDS_P1;SDS_P2;PMS_P1;PMS_P2;Temp;Humidity;BMP_temperature;BMP_pressure;BME280_temperature;BME280_humidity;BME280_pressure;Samples;Min_cycle;Max_cycle;Signal;HPM_P1;HPM_P2
2021/06/14 00:00:40;;;;;;;10.17;7.00;;;16.50;85.60;;;;;;5014050;28;20835;-77
2021/06/14 00:03:07;;;;;;;7.13;6.43;;;16.50;85.50;;;;;;5028996;28;20432;-80
2021/06/14 00:05:39;;;;;;;9.70;6.57;;;16.40;85.80;;;;;;5012045;28;20452;-79
2021/06/14 00:08:09;;;;;;;9.87;6.40;;;16.30;86.30;;;;;;5011458;28;20828;-78
2021/06/14 00:10:37;;;;;;;7.10;6.13;;;16.30;87.00;;;;;;5011543;28;20498;-79
2021/06/14 00:13:06;;;;;;;10.10;7.20;;;16.20;87.50;;;;;;5012323;28;20417;-79
2021/06/14 00:15:35;;;;;;;10.33;6.50;;;16.20;87.70;;;;;;5011854;28;20467;-79
2021/06/14 00:18:04;;;;;;;11.67;6.67;;;16.20;88.40;;;;;;5010625;28;20449;-82
2021/06/14 00:20:32;;;;;;;12.10;6.67;;;16.20;88.50;;;;;;5010331;28;20963;-78
2021/06/14 00:22:59;;;;;;;9.40;6.30;;;16.20;88.20;;;;;;5027784;28;20443;-79
2021/06/14 00:25:29;;;;;;;8.67;6.60;;;16.10;89.30;;;;;;5031150;28;20462;-79
2021/06/14 00:27:56;;;;;;;7.30;6.33;;;16.10;89.30;;;;;;5031359;28;20471;-80
2021/06/14 00:30:31;;;;;;;9.43;6.40;;;16.10;89.30;;;;;;5038991;28;20496;-80
2021/06/14 00:32:58;;;;;;;9.37;6.70;;;16.00;89.20;;;;;;5051595;28;20429;-79
2021/06/14 00:35:25;;;;;;;10.07;7.03;;;16.00;89.50;;;;;;5051158;28;20820;-79
2021/06/14 00:37:52;;;;;;;8.97;6.40;;;15.80;90.10;;;;;;5017320;28;20474;-79
2021/06/14 00:40:19;;;;;;;7.67;5.73;;;15.80;90.30;;;;;;5011086;28;20502;-78
2021/06/14 00:42:47;;;;;;;9.97;6.50;;;15.80;90.30;;;;;;5010477;28;20455;-78
2021/06/14 00:45:17;;;;;;;9.50;6.70;;;15.80;90.50;;;;;;5025126;28;20494;-78
2021/06/14 00:47:45;;;;;;;9.90;5.77;;;15.80;90.30;;;;;;5011252;28;20478;-79
2021/06/14 00:50:14;;;;;;;11.23;6.13;;;15.80;90.30;;;;;;5011283;28;20607;-80
2021/06/14 00:52:41;;;;;;;9.87;7.27;;;15.80;90.50;;;;;;5014607;28;20444;-78
2021/06/14 00:55:11;;;;;;;9.27;6.37;;;15.80;90.30;;;;;;5011126;28;20900;-78
2021/06/14 00:57:38;;;;;;;13.80;6.50;;;15.70;90.70;;;;;;5013899;28;20475;-78
2021/06/14 01:00:06;;;;;;;7.03;5.80;;;15.70;90.60;;;;;;5013152;28;20462;-78
2021/06/14 01:02:41;;;;;;;8.10;6.00;;;15.60;90.80;;;;;;5013992;28;20794;-79
2021/06/14 01:05:10;;;;;;;10.10;6.53;;;15.50;91.00;;;;;;5014260;28;20868;-79
2021/06/14 01:07:38;;;;;;;9.17;6.60;;;15.50;91.00;;;;;;5014454;28;20463;-76
2021/06/14 01:10:06;;;;;;;7.80;5.03;;;15.40;91.30;;;;;;5014244;28;20465;-78
2021/06/14 01:12:47;;;;;;;7.63;6.30;;;15.30;91.60;;;;;;5014763;28;20415;-79
2021/06/14 01:15:16;;;;;;;7.60;6.50;;;15.20;91.90;;;;;;5013805;28;20451;-77
2021/06/14 01:17:49;;;;;;;8.40;7.07;;;15.30;91.60;;;;;;5014467;28;20832;-78
2021/06/14 01:20:38;;;;;;;11.20;6.80;;;15.30;91.70;;;;;;5013128;28;20463;-77
2021/06/14 01:23:24;;;;;;;8.53;6.73;;;15.30;91.50;;;;;;4998014;28;20465;-78
2021/06/14 01:26:03;;;;;;;6.77;6.07;;;15.30;91.30;;;;;;5012886;28;20514;-77
2021/06/14 01:28:33;;;;;;;8.80;5.90;;;15.20;91.40;;;;;;5017009;28;20454;-78
2021/06/14 01:31:05;;;;;;;10.37;6.10;;;15.20;91.30;;;;;;5046341;28;20472;-80
2021/06/14 01:33:34;;;;;;;9.60;6.20;;;15.20;91.40;;;;;;5055095;28;20420;-76
2021/06/14 01:36:24;;;;;;;6.10;5.47;;;15.20;91.30;;;;;;5049455;28;20452;-78
2021/06/14 01:38:54;;;;;;;7.00;5.40;;;15.00;91.60;;;;;;5014366;28;20956;-79
2021/06/14 01:41:25;;;;;;;13.43;6.03;;;15.00;91.70;;;;;;5013851;28;21019;-79
2021/06/14 01:44:05;;;;;;;8.73;6.17;;;14.90;92.00;;;;;;5013191;28;20444;-78
2021/06/14 01:46:37;;;;;;;8.63;6.17;;;14.90;91.90;;;;;;5023560;28;21048;-77
2021/06/14 01:49:09;;;;;;;8.90;6.07;;;15.00;91.60;;;;;;5012842;28;20478;-79
2021/06/14 01:51:40;;;;;;;7.53;5.87;;;14.90;91.70;;;;;;5013074;28;20470;-77
2021/06/14 01:54:12;;;;;;;8.00;5.90;;;14.80;92.40;;;;;;5014110;28;20419;-78
2021/06/14 01:56:53;;;;;;;7.40;6.43;;;14.90;91.70;;;;;;5013319;28;20920;-79
2021/06/14 01:59:37;;;;;;;6.10;5.30;;;14.80;91.90;;;;;;5012691;28;20686;-76
2021/06/14 02:02:14;;;;;;;7.67;5.47;;;14.80;92.00;;;;;;5013034;28;20468;-77
2021/06/14 02:04:46;;;;;;;9.17;6.60;;;14.70;91.80;;;;;;5012210;28;20472;-80
2021/06/14 02:07:24;;;;;;;9.10;6.40;;;14.70;92.00;;;;;;5031306;28;20444;-78
2021/06/14 02:09:54;;;;;;;7.73;6.47;;;14.60;92.10;;;;;;5030991;28;20938;-78
2021/06/14 02:12:21;;;;;;;9.20;5.60;;;14.60;92.00;;;;;;5033398;28;20431;-79
2021/06/14 02:14:49;;;;;;;8.57;5.80;;;14.60;92.10;;;;;;5031554;28;20513;-78
2021/06/14 02:17:22;;;;;;;8.67;5.57;;;14.60;91.90;;;;;;5031845;28;20420;-77
2021/06/14 02:19:50;;;;;;;9.03;6.13;;;14.60;91.90;;;;;;5031654;28;20484;-79
2021/06/14 02:22:20;;;;;;;10.80;6.73;;;14.60;92.10;;;;;;5020241;28;20988;-75
2021/06/14 02:24:48;;;;;;;11.20;7.20;;;14.60;91.80;;;;;;4995480;28;20457;-78
2021/06/14 02:27:19;;;;;;;7.10;5.80;;;14.50;92.00;;;;;;5012915;28;20512;-76
2021/06/14 02:29:48;;;;;;;9.00;6.00;;;14.50;92.00;;;;;;5020660;28;20463;-77
2021/06/14 02:32:15;;;;;;;7.90;6.30;;;14.50;91.90;;;;;;5018027;28;20449;-79
2021/06/14 02:34:44;;;;;;;8.17;6.83;;;14.30;92.20;;;;;;5011331;28;20525;-75
2021/06/14 02:37:15;;;;;;;16.10;6.90;;;14.40;92.50;;;;;;5018610;28;20782;-77
2021/06/14 02:39:44;;;;;;;9.30;6.03;;;14.40;92.40;;;;;;5011275;28;20441;-75
2021/06/14 02:42:12;;;;;;;10.73;6.80;;;14.30;92.50;;;;;;5013031;28;20464;-78
2021/06/14 02:44:40;;;;;;;9.10;7.00;;;14.20;92.60;;;;;;5015912;28;20445;-77
2021/06/14 02:47:11;;;;;;;8.13;5.77;;;14.20;92.50;;;;;;5031062;28;20945;-75
2021/06/14 02:49:41;;;;;;;9.77;5.37;;;14.10;92.80;;;;;;5030884;28;20475;-76
2021/06/14 02:52:12;;;;;;;10.60;5.10;;;14.10;92.60;;;;;;5021616;28;20480;-78
2021/06/14 02:54:52;;;;;;;10.60;6.27;;;14.10;92.70;;;;;;5012434;28;20421;-77
2021/06/14 02:57:22;;;;;;;7.50;4.93;;;14.10;92.70;;;;;;5012903;28;20428;-77
2021/06/14 02:59:54;;;;;;;11.70;6.93;;;14.10;92.70;;;;;;5010914;28;20479;-76
2021/06/14 03:02:25;;;;;;;8.30;6.00;;;14.00;92.90;;;;;;5012169;28;20437;-76
2021/06/14 03:04:54;;;;;;;10.00;6.60;;;14.00;93.10;;;;;;5020774;28;20487;-79
2021/06/14 03:07:28;;;;;;;8.80;6.40;;;14.00;93.10;;;;;;5011280;28;20441;-77
2021/06/14 03:09:55;;;;;;;7.60;5.87;;;13.90;93.50;;;;;;5012071;28;20473;-77
2021/06/14 03:12:25;;;;;;;13.10;6.60;;;13.80;94.40;;;;;;5011418;28;20801;-78
2021/06/14 03:14:54;;;;;;;11.80;6.40;;;13.90;94.20;;;;;;5011856;28;20854;-74
2021/06/14 03:17:22;;;;;;;6.90;5.87;;;13.80;94.20;;;;;;5012199;28;20425;-78
2021/06/14 03:19:53;;;;;;;9.17;6.20;;;13.80;94.00;;;;;;5010957;28;20483;-77
2021/06/14 03:22:20;;;;;;;8.53;5.80;;;13.90;94.20;;;;;;5011203;28;20899;-76
2021/06/14 03:24:47;;;;;;;7.30;6.10;;;13.90;94.20;;;;;;5011682;28;20866;-77
2021/06/14 03:27:16;;;;;;;12.30;7.37;;;13.90;94.10;;;;;;5010791;28;20491;-76
2021/06/14 03:29:44;;;;;;;11.03;6.60;;;13.80;94.20;;;;;;5018622;28;20642;-78
2021/06/14 03:32:12;;;;;;;10.60;6.50;;;13.80;94.60;;;;;;5011200;28;20458;-76
2021/06/14 03:34:40;;;;;;;13.90;7.60;;;13.80;94.60;;;;;;5011688;28;20520;-78
2021/06/14 03:37:08;;;;;;;10.77;6.93;;;13.70;95.00;;;;;;5011411;28;20437;-78
2021/06/14 03:39:35;;;;;;;7.93;6.60;;;13.80;95.20;;;;;;5011512;28;20460;-79
2021/06/14 03:42:02;;;;;;;9.27;5.90;;;13.70;95.20;;;;;;5010797;28;20437;-77
2021/06/14 03:44:29;;;;;;;11.40;6.50;;;13.70;95.00;;;;;;5009969;28;20439;-78
2021/06/14 03:46:56;;;;;;;11.07;6.17;;;13.70;95.00;;;;;;5011943;28;20423;-78
2021/06/14 03:49:22;;;;;;;9.10;7.13;;;13.80;95.00;;;;;;5010705;28;20503;-77
2021/06/14 03:51:57;;;;;;;10.20;6.37;;;13.80;95.50;;;;;;5014022;28;20461;-75
2021/06/14 03:54:23;;;;;;;12.23;8.40;;;13.80;95.40;;;;;;5012084;28;20863;-75
2021/06/14 03:56:50;;;;;;;12.23;6.43;;;13.80;96.00;;;;;;5011400;28;20616;-79
2021/06/14 03:59:17;;;;;;;13.83;7.30;;;13.70;96.20;;;;;;5011739;28;20443;-75
2021/06/14 04:01:44;;;;;;;8.60;6.80;;;13.80;96.10;;;;;;5010942;28;20564;-77
2021/06/14 04:06:56;;;;;;;11.90;6.27;;;13.90;96.90;;;;;;5009534;28;20978;-77
2021/06/14 04:09:23;;;;;;;11.70;7.00;;;13.80;96.60;;;;;;5011599;28;20468;-76
2021/06/14 04:11:50;;;;;;;10.77;6.43;;;13.90;96.60;;;;;;5011463;28;20907;-77
2021/06/14 04:14:17;;;;;;;12.70;7.23;;;13.80;97.00;;;;;;5027033;28;20512;-78
2021/06/14 04:16:47;;;;;;;10.77;7.73;;;13.70;97.20;;;;;;5011556;28;20555;-75
2021/06/14 04:19:14;;;;;;;10.30;7.20;;;13.60;97.60;;;;;;5011492;28;20484;-76
2021/06/14 04:21:41;;;;;;;11.23;7.67;;;13.50;98.40;;;;;;5011100;28;20840;-75
2021/06/14 04:24:09;;;;;;;9.90;6.23;;;13.50;98.60;;;;;;5012169;28;20425;-76
2021/06/14 04:26:36;;;;;;;10.37;6.43;;;13.50;99.10;;;;;;5011262;28;20515;-77
2021/06/14 04:29:04;;;;;;;10.07;6.87;;;13.50;99.70;;;;;;5026367;28;20465;-75
2021/06/14 04:31:31;;;;;;;11.67;6.87;;;13.60;99.90;;;;;;5027629;28;20473;-78
2021/06/14 04:33:58;;;;;;;16.80;8.20;;;13.60;99.70;;;;;;5015229;28;20487;-75
2021/06/14 04:36:26;;;;;;;11.63;6.40;;;13.60;99.70;;;;;;5014686;28;20468;-78
2021/06/14 04:38:52;;;;;;;14.33;7.20;;;13.70;99.90;;;;;;5014984;28;20461;-77
2021/06/14 04:41:19;;;;;;;10.43;6.50;;;13.80;99.90;;;;;;4997453;28;20492;-78
2021/06/14 04:43:46;;;;;;;10.07;6.50;;;13.80;99.90;;;;;;5015130;28;20460;-77
2021/06/14 04:46:13;;;;;;;11.10;7.70;;;13.90;99.90;;;;;;5022315;28;20474;-77
2021/06/14 04:48:40;;;;;;;9.90;7.37;;;13.90;99.90;;;;;;5033637;28;20470;-78
2021/06/14 04:51:06;;;;;;;10.43;6.80;;;14.00;99.90;;;;;;5030201;28;20460;-77
2021/06/14 04:53:33;;;;;;;13.90;6.73;;;14.00;99.80;;;;;;5014020;28;20421;-76
2021/06/14 04:56:00;;;;;;;9.67;6.33;;;14.10;99.90;;;;;;5030514;28;20538;-76
2021/06/14 04:58:27;;;;;;;11.13;7.50;;;14.20;99.90;;;;;;5033397;28;20458;-76
2021/06/14 05:00:57;;;;;;;8.33;6.77;;;14.20;99.90;;;;;;5028754;28;21002;-76
2021/06/14 05:03:24;;;;;;;9.97;7.07;;;14.30;99.90;;;;;;5015131;28;20448;-77
2021/06/14 05:05:51;;;;;;;10.07;7.33;;;14.40;99.90;;;;;;5014122;28;20460;-78
2021/06/14 05:08:19;;;;;;;12.90;8.60;;;14.40;99.90;;;;;;5015234;28;20471;-78
2021/06/14 05:10:47;;;;;;;11.03;6.57;;;14.50;99.80;;;;;;5012938;28;20453;-76
2021/06/14 05:13:14;;;;;;;12.63;7.30;;;14.50;99.30;;;;;;4997151;28;20436;-75
2021/06/14 05:15:41;;;;;;;9.97;7.23;;;14.60;99.30;;;;;;5013986;28;20502;-79
2021/06/14 05:18:08;;;;;;;10.20;7.60;;;14.70;99.90;;;;;;5014450;28;20444;-77
2021/06/14 05:20:36;;;;;;;13.40;7.73;;;14.80;99.90;;;;;;5029023;28;20464;-78
2021/06/14 05:23:03;;;;;;;11.10;7.80;;;14.90;99.90;;;;;;5014405;28;20447;-78
2021/06/14 05:25:33;;;;;;;12.83;7.07;;;15.00;99.90;;;;;;5013994;28;20769;-77
2021/06/14 05:28:00;;;;;;;12.63;8.40;;;15.10;99.90;;;;;;5014152;28;20493;-78
2021/06/14 05:30:28;;;;;;;16.63;8.53;;;15.20;99.90;;;;;;5017451;28;20854;-78
2021/06/14 05:32:55;;;;;;;11.60;7.90;;;15.20;99.90;;;;;;5014346;28;20422;-77
2021/06/14 05:35:22;;;;;;;11.67;8.10;;;15.40;99.90;;;;;;5013835;28;20457;-79
2021/06/14 05:37:49;;;;;;;12.10;7.60;;;15.40;99.90;;;;;;5012345;28;20465;-77
2021/06/14 05:40:17;;;;;;;11.50;8.20;;;15.40;99.90;;;;;;5024030;28;20461;-78
2021/06/14 05:42:45;;;;;;;11.03;8.07;;;15.50;99.90;;;;;;5041318;28;20440;-77
2021/06/14 05:45:13;;;;;;;12.10;7.73;;;15.70;99.90;;;;;;5053373;28;20451;-78
2021/06/14 05:47:40;;;;;;;8.50;6.10;;;15.80;99.90;;;;;;5048940;28;20830;-78
2021/06/14 05:50:08;;;;;;;8.67;7.17;;;15.90;99.90;;;;;;5053245;28;20469;-75
2021/06/14 05:52:35;;;;;;;11.60;7.57;;;16.00;99.90;;;;;;5026022;28;20461;-79
2021/06/14 05:55:02;;;;;;;8.20;6.53;;;16.10;99.60;;;;;;5029911;28;20461;-77
2021/06/14 05:57:29;;;;;;;9.07;7.23;;;16.30;98.60;;;;;;5013651;28;20427;-79
2021/06/14 05:59:56;;;;;;;17.83;6.63;;;16.40;98.60;;;;;;5045621;28;20456;-79
2021/06/14 06:02:23;;;;;;;9.20;5.67;;;16.50;98.00;;;;;;5013816;28;20436;-81
2021/06/14 06:04:49;;;;;;;8.53;5.93;;;16.70;96.60;;;;;;5013353;28;20852;-77
2021/06/14 06:07:16;;;;;;;9.30;6.73;;;17.00;95.70;;;;;;5020383;28;20437;-78
2021/06/14 06:09:43;;;;;;;13.30;5.47;;;17.60;95.10;;;;;;5013282;28;20469;-80
2021/06/14 06:12:10;;;;;;;8.70;5.50;;;18.10;92.90;;;;;;5014090;28;20413;-79
2021/06/14 06:14:37;;;;;;;10.73;6.00;;;18.60;91.20;;;;;;5013259;28;20417;-80
2021/06/14 06:17:04;;;;;;;9.33;5.27;;;19.10;90.80;;;;;;5020617;28;20447;-78
2021/06/14 06:19:31;;;;;;;6.07;5.47;;;19.40;86.30;;;;;;5031523;28;20440;-79
2021/06/14 06:21:58;;;;;;;7.60;6.10;;;19.50;87.50;;;;;;5022624;28;20459;-80
2021/06/14 06:24:25;;;;;;;6.57;5.20;;;19.70;85.90;;;;;;5030539;28;20524;-82
2021/06/14 06:26:52;;;;;;;5.83;4.97;;;20.00;83.30;;;;;;5032901;28;20818;-80
2021/06/14 06:29:19;;;;;;;7.97;6.70;;;19.90;82.90;;;;;;5029768;28;20465;-80
2021/06/14 06:31:46;;;;;;;7.87;5.93;;;19.90;83.10;;;;;;5011690;28;20848;-80
2021/06/14 06:34:13;;;;;;;7.83;5.23;;;19.90;85.70;;;;;;5013306;28;20425;-81
2021/06/14 06:36:42;;;;;;;9.90;5.90;;;19.90;84.50;;;;;;5035150;28;21014;-81
2021/06/14 06:39:09;;;;;;;9.77;5.33;;;19.90;84.20;;;;;;5012808;28;20471;-78
2021/06/14 06:41:35;;;;;;;7.70;5.53;;;19.80;83.20;;;;;;5011560;28;20488;-78
2021/06/14 06:44:03;;;;;;;7.97;5.40;;;19.90;83.20;;;;;;5013125;28;20436;-80
2021/06/14 06:46:29;;;;;;;7.13;5.63;;;20.00;85.20;;;;;;5027547;28;20474;-81
2021/06/14 06:48:56;;;;;;;8.53;5.70;;;20.10;84.60;;;;;;5012811;28;20437;-79
2021/06/14 06:51:23;;;;;;;7.20;5.83;;;20.20;85.60;;;;;;5026564;28;20584;-80
2021/06/14 06:54:10;;;;;;;7.93;4.90;;;20.30;82.10;;;;;;5012931;28;20456;-78
2021/06/14 06:56:46;;;;;;;10.80;6.20;;;20.30;81.00;;;;;;5012151;28;20479;-76
2021/06/14 06:59:13;;;;;;;10.23;4.93;;;20.40;80.50;;;;;;5012788;28;20483;-78
2021/06/14 07:01:40;;;;;;;7.63;5.23;;;20.50;77.70;;;;;;5029623;28;20492;-79
2021/06/14 07:04:07;;;;;;;6.90;5.23;;;20.40;77.50;;;;;;5032551;28;21002;-80
2021/06/14 07:06:35;;;;;;;8.40;6.03;;;20.50;77.70;;;;;;5030659;28;20553;-79
2021/06/14 07:09:02;;;;;;;6.30;5.17;;;20.50;78.50;;;;;;5030759;28;20441;-79
2021/06/14 07:11:30;;;;;;;8.57;5.97;;;20.50;77.80;;;;;;5031840;28;20569;-80
2021/06/14 07:13:58;;;;;;;5.73;4.50;;;20.60;80.00;;;;;;5032469;28;20432;-78
2021/06/14 07:16:26;;;;;;;7.87;5.10;;;20.70;76.50;;;;;;5013980;28;20503;-81
2021/06/14 07:18:54;;;;;;;9.53;5.33;;;20.70;77.70;;;;;;5011238;28;20543;-79
2021/06/14 07:21:22;;;;;;;6.53;5.10;;;20.80;77.40;;;;;;5011940;28;20469;-80
2021/06/14 07:23:50;;;;;;;6.47;4.70;;;20.80;77.40;;;;;;5033054;28;20431;-78
2021/06/14 07:26:17;;;;;;;7.43;5.50;;;21.00;75.00;;;;;;5033328;28;20459;-80
2021/06/14 07:28:44;;;;;;;5.13;4.47;;;21.10;77.10;;;;;;5032871;28;20447;-80
2021/06/14 07:31:11;;;;;;;7.63;5.40;;;21.20;76.80;;;;;;5026809;28;20901;-80
2021/06/14 07:33:39;;;;;;;8.23;4.83;;;21.30;76.10;;;;;;5012699;28;20432;-80
2021/06/14 07:36:10;;;;;;;5.90;4.70;;;21.20;79.10;;;;;;5034622;28;20478;-82
2021/06/14 07:38:39;;;;;;;9.03;5.27;;;21.30;77.40;;;;;;5031930;28;20563;-79
2021/06/14 07:41:10;;;;;;;7.33;4.80;;;21.40;74.50;;;;;;5031994;28;20803;-79
2021/06/14 07:43:37;;;;;;;8.03;5.20;;;21.50;76.70;;;;;;5030897;28;20447;-78
2021/06/14 07:46:04;;;;;;;6.37;4.83;;;21.60;72.50;;;;;;5016029;28;20465;-82
2021/06/14 07:48:32;;;;;;;6.13;4.93;;;21.60;72.90;;;;;;5012206;28;20453;-80
2021/06/14 07:50:59;;;;;;;6.27;4.63;;;21.60;74.70;;;;;;5010370;28;20472;-80
2021/06/14 07:53:26;;;;;;;6.50;4.30;;;21.70;73.80;;;;;;5027413;28;20630;-79
2021/06/14 07:55:55;;;;;;;4.90;4.30;;;21.70;74.10;;;;;;5011708;28;20496;-79
2021/06/14 07:58:22;;;;;;;7.97;5.20;;;21.80;72.60;;;;;;5012023;28;20519;-81
2021/06/14 08:00:49;;;;;;;6.80;4.93;;;21.90;74.40;;;;;;5025376;28;20496;-81
2021/06/14 08:03:17;;;;;;;5.07;4.57;;;21.80;73.40;;;;;;5027162;28;20491;-80
2021/06/14 08:05:44;;;;;;;6.23;4.40;;;21.90;74.00;;;;;;5010267;28;20602;-79
2021/06/14 08:08:14;;;;;;;5.83;4.43;;;22.10;72.10;;;;;;5034005;28;20559;-80
2021/06/14 08:10:43;;;;;;;5.70;4.47;;;22.10;72.20;;;;;;5035124;28;21041;-81
2021/06/14 08:13:10;;;;;;;5.87;4.67;;;22.20;72.80;;;;;;5034570;28;20511;-80
2021/06/14 08:15:38;;;;;;;6.27;5.07;;;22.40;71.20;;;;;;5033996;28;20452;-78
2021/06/14 08:20:39;;;;;;;9.30;4.63;;;22.50;70.60;;;;;;5035000;28;20468;-80
2021/06/14 08:25:52;;;;;;;6.10;4.30;;;22.80;68.70;;;;;;5035027;28;20456;-80
2021/06/14 08:28:21;;;;;;;6.33;4.70;;;22.90;71.90;;;;;;5034212;28;20445;-78
2021/06/14 08:30:48;;;;;;;5.13;4.40;;;22.90;71.70;;;;;;5029690;28;20920;-81
2021/06/14 08:33:15;;;;;;;6.77;4.50;;;23.00;64.20;;;;;;5030919;28;20430;-80
2021/06/14 08:35:42;;;;;;;7.70;4.50;;;23.10;67.80;;;;;;5040664;28;20833;-79
2021/06/14 08:38:09;;;;;;;9.80;4.17;;;23.30;69.40;;;;;;5023834;28;20465;-79
2021/06/14 08:40:37;;;;;;;6.30;4.57;;;23.30;65.50;;;;;;5053416;28;20468;-78
2021/06/14 08:43:05;;;;;;;7.23;3.90;;;23.30;64.50;;;;;;5055296;28;20430;-81
2021/06/14 08:45:38;;;;;;;5.97;3.70;;;23.40;63.60;;;;;;5040953;28;20502;-80
2021/06/14 08:48:07;;;;;;;4.50;4.07;;;23.40;65.30;;;;;;5015141;28;20478;-81
2021/06/14 08:50:35;;;;;;;5.70;4.53;;;23.50;64.50;;;;;;5029588;28;20471;-79
2021/06/14 08:53:02;;;;;;;4.60;3.77;;;23.60;64.70;;;;;;5015485;28;20558;-81
2021/06/14 08:55:29;;;;;;;4.43;3.93;;;23.70;62.80;;;;;;5036798;28;20520;-80
2021/06/14 08:57:56;;;;;;;4.80;3.90;;;23.90;58.60;;;;;;5053228;28;20458;-79
2021/06/14 09:00:27;;;;;;;6.83;3.90;;;24.00;60.30;;;;;;5030782;28;20467;-79
2021/06/14 09:02:55;;;;;;;6.47;4.20;;;24.00;59.20;;;;;;5014952;28;20790;-78
2021/06/14 09:05:23;;;;;;;4.80;3.87;;;24.10;56.20;;;;;;5014521;28;20460;-78
2021/06/14 09:07:52;;;;;;;4.83;3.63;;;24.20;55.30;;;;;;5028528;28;20475;-80
2021/06/14 09:10:30;;;;;;;5.17;4.20;;;24.20;52.40;;;;;;5033988;28;20481;-77
2021/06/14 09:13:09;;;;;;;5.43;3.83;;;24.30;52.10;;;;;;5034690;28;20421;-78
2021/06/14 09:15:37;;;;;;;3.93;3.60;;;24.20;53.30;;;;;;5016254;28;20469;-78
2021/06/14 09:18:34;;;;;;;3.83;3.10;;;24.20;53.50;;;;;;5015278;28;20442;-78
2021/06/14 09:21:01;;;;;;;5.63;3.80;;;24.30;54.10;;;;;;5002195;28;20479;-77
2021/06/14 09:23:48;;;;;;;4.80;3.53;;;24.30;50.20;;;;;;5014508;28;20424;-80
2021/06/14 09:26:43;;;;;;;4.63;3.60;;;24.40;52.70;;;;;;5029153;28;20468;-78
2021/06/14 09:29:19;;;;;;;4.67;3.57;;;24.50;52.50;;;;;;5014384;28;20451;-78
2021/06/14 09:31:55;;;;;;;4.80;3.60;;;24.50;51.60;;;;;;5024341;28;20463;-78
2021/06/14 09:34:37;;;;;;;4.73;3.70;;;24.60;50.90;;;;;;5034704;28;20786;-81
2021/06/14 09:37:07;;;;;;;7.10;4.47;;;24.80;48.20;;;;;;5024764;28;20839;-80
2021/06/14 09:39:42;;;;;;;6.97;4.30;;;25.00;46.60;;;;;;5013840;28;21072;-77
2021/06/14 09:42:16;;;;;;;7.57;3.93;;;25.00;47.60;;;;;;5014398;28;20788;-80
2021/06/14 09:44:45;;;;;;;4.03;3.63;;;25.10;47.40;;;;;;5013554;28;20435;-80
2021/06/14 09:47:13;;;;;;;5.00;3.60;;;25.30;48.50;;;;;;5014017;28;20425;-79
2021/06/14 09:49:41;;;;;;;4.73;3.50;;;25.40;47.50;;;;;;5013604;28;20943;-78
2021/06/14 09:52:20;;;;;;;4.53;3.27;;;25.40;46.70;;;;;;5014089;28;20892;-79
2021/06/14 09:54:47;;;;;;;6.23;5.33;;;25.40;47.40;;;;;;5012460;28;20844;-79
2021/06/14 09:57:27;;;;;;;5.67;4.30;;;25.50;48.20;;;;;;5013920;28;20417;-78
2021/06/14 10:00:12;;;;;;;6.27;4.47;;;25.60;46.50;;;;;;5028784;28;20984;-81
2021/06/14 10:02:45;;;;;;;4.97;3.40;;;25.70;47.80;;;;;;5029017;28;20841;-78
2021/06/14 10:05:22;;;;;;;5.13;3.67;;;25.70;46.10;;;;;;5033297;28;20574;-78
2021/06/14 10:07:52;;;;;;;5.60;3.30;;;26.00;43.70;;;;;;5027487;28;20464;-79
2021/06/14 10:10:28;;;;;;;7.83;3.77;;;25.90;45.70;;;;;;5012281;28;20548;-80
2021/06/14 10:12:58;;;;;;;9.00;3.53;;;25.90;43.20;;;;;;5012655;28;20993;-79
2021/06/14 10:15:43;;;;;;;5.67;3.87;;;25.90;46.50;;;;;;4995874;28;20500;-79
2021/06/14 10:18:11;;;;;;;6.23;3.30;;;25.90;44.00;;;;;;5013335;28;20444;-79
2021/06/14 10:20:39;;;;;;;5.20;3.40;;;25.90;47.10;;;;;;5013181;28;20453;-78
2021/06/14 10:23:07;;;;;;;3.60;3.10;;;26.10;45.60;;;;;;5026529;28;20540;-81
2021/06/14 10:25:36;;;;;;;5.70;4.10;;;26.10;48.60;;;;;;5011974;28;20473;-80
2021/06/14 10:28:05;;;;;;;3.80;3.40;;;26.10;46.20;;;;;;5011829;28;20448;-78
2021/06/14 10:30:32;;;;;;;5.07;3.50;;;26.20;46.40;;;;;;5026928;28;20576;-81
2021/06/14 10:33:02;;;;;;;5.57;3.40;;;26.30;46.00;;;;;;5047579;28;20972;-79
2021/06/14 10:35:30;;;;;;;3.60;3.13;;;26.30;46.50;;;;;;5032679;28;21029;-81
2021/06/14 10:38:02;;;;;;;5.70;3.60;;;26.30;49.00;;;;;;5015352;28;20824;-79
2021/06/14 10:40:28;;;;;;;5.47;3.10;;;26.30;46.60;;;;;;5012861;28;20915;-78
2021/06/14 10:42:57;;;;;;;4.27;3.70;;;26.40;44.60;;;;;;4995695;28;20468;-79
2021/06/14 10:45:28;;;;;;;5.43;4.03;;;26.50;44.50;;;;;;5012837;28;20452;-78
2021/06/14 10:47:56;;;;;;;3.50;3.17;;;26.60;45.50;;;;;;5011595;28;20819;-79
2021/06/14 10:50:25;;;;;;;3.60;3.30;;;26.60;46.40;;;;;;5010885;28;20515;-80
2021/06/14 10:52:55;;;;;;;8.90;3.97;;;26.50;45.50;;;;;;5007720;28;20850;-79
2021/06/14 10:55:31;;;;;;;4.70;3.53;;;26.70;45.20;;;;;;5012381;28;20460;-81
2021/06/14 10:57:58;;;;;;;5.20;3.30;;;26.80;40.70;;;;;;5024740;28;20448;-80
2021/06/14 11:00:32;;;;;;;4.57;4.17;;;26.80;44.80;;;;;;5023398;28;20473;-80
2021/06/14 11:03:04;;;;;;;6.53;3.77;;;26.90;44.80;;;;;;5032557;28;20968;-80
2021/06/14 11:05:48;;;;;;;4.53;3.60;;;26.90;44.20;;;;;;5032117;28;20877;-80
2021/06/14 11:08:20;;;;;;;5.60;3.60;;;26.90;45.70;;;;;;5027135;28;20460;-80
2021/06/14 11:11:06;;;;;;;4.27;3.87;;;27.00;44.80;;;;;;5012003;28;20542;-78
2021/06/14 11:13:34;;;;;;;5.67;3.93;;;27.10;45.40;;;;;;5012923;28;20871;-78
2021/06/14 11:16:02;;;;;;;4.30;3.90;;;27.20;45.00;;;;;;5014796;28;20873;-79
2021/06/14 11:18:31;;;;;;;5.13;3.20;;;27.20;44.50;;;;;;5032203;28;20534;-78
2021/06/14 11:21:19;;;;;;;4.40;3.77;;;27.40;44.50;;;;;;5029228;28;20460;-79
2021/06/14 11:23:48;;;;;;;4.20;3.80;;;27.50;44.60;;;;;;5012675;28;20429;-78
2021/06/14 11:26:30;;;;;;;3.50;3.23;;;27.60;44.10;;;;;;5010690;28;20483;-79
2021/06/14 11:28:59;;;;;;;3.90;3.60;;;27.70;43.40;;;;;;5012560;28;20810;-78
2021/06/14 11:31:30;;;;;;;7.50;4.27;;;27.90;39.70;;;;;;5025161;28;20969;-80
2021/06/14 11:34:01;;;;;;;4.60;4.20;;;27.90;41.30;;;;;;5052252;28;20878;-79
2021/06/14 11:36:30;;;;;;;3.60;3.30;;;27.90;40.50;;;;;;5045512;28;21024;-78
2021/06/14 11:39:10;;;;;;;4.67;2.80;;;27.90;41.30;;;;;;5014412;28;20464;-80
2021/06/14 11:41:37;;;;;;;5.57;3.93;;;27.90;40.20;;;;;;5030595;28;20464;-80
2021/06/14 11:44:30;;;;;;;5.10;3.77;;;28.00;41.40;;;;;;5030765;28;20420;-80
2021/06/14 11:47:11;;;;;;;5.23;3.63;;;27.90;41.30;;;;;;5021452;28;20457;-80
2021/06/14 11:49:39;;;;;;;5.23;3.53;;;28.10;41.50;;;;;;5011971;28;20412;-78
2021/06/14 11:52:37;;;;;;;5.47;3.90;;;28.00;41.60;;;;;;5011486;28;20468;-77
2021/06/14 11:55:10;;;;;;;3.90;3.60;;;28.10;40.70;;;;;;5000042;28;20971;-80
2021/06/14 11:57:45;;;;;;;5.20;4.20;;;28.20;41.60;;;;;;5010875;28;20459;-80
2021/06/14 12:00:24;;;;;;;5.90;3.60;;;28.20;41.60;;;;;;5011370;28;20459;-80
2021/06/14 12:02:51;;;;;;;5.73;3.80;;;28.30;41.70;;;;;;5030481;28;20440;-78
2021/06/14 12:05:35;;;;;;;7.30;4.10;;;28.20;41.60;;;;;;5031339;28;20549;-80
2021/06/14 12:08:03;;;;;;;4.60;4.00;;;28.30;41.60;;;;;;5030266;28;20492;-80
2021/06/14 12:10:31;;;;;;;5.70;3.80;;;28.20;40.90;;;;;;5031178;28;20466;-77
2021/06/14 12:13:10;;;;;;;5.23;3.40;;;28.20;39.70;;;;;;5030949;28;20914;-79
2021/06/14 12:15:39;;;;;;;4.80;4.03;;;28.40;38.60;;;;;;5022153;28;20526;-79
2021/06/14 12:18:07;;;;;;;7.20;4.43;;;28.40;39.50;;;;;;5011889;28;20437;-80
2021/06/14 12:20:41;;;;;;;6.27;4.10;;;28.60;40.60;;;;;;5025492;28;20460;-79
2021/06/14 12:23:14;;;;;;;6.80;4.30;;;28.50;42.10;;;;;;5026925;28;20447;-80
2021/06/14 12:25:48;;;;;;;4.10;3.63;;;28.50;41.60;;;;;;5026792;28;20463;-80
2021/06/14 12:28:17;;;;;;;4.40;4.00;;;28.50;41.20;;;;;;5011447;28;20528;-78
2021/06/14 12:30:47;;;;;;;5.13;4.23;;;28.60;40.20;;;;;;5030862;28;20618;-79
2021/06/14 12:33:31;;;;;;;7.97;4.50;;;28.80;39.40;;;;;;5054101;28;20811;-79
2021/06/14 12:35:59;;;;;;;7.27;4.70;;;28.70;41.20;;;;;;5051023;28;20532;-79
2021/06/14 12:38:29;;;;;;;4.77;4.27;;;28.70;40.40;;;;;;5015102;28;20441;-77
2021/06/14 12:40:58;;;;;;;4.23;3.83;;;28.80;38.90;;;;;;5014275;28;20468;-79
2021/06/14 12:43:33;;;;;;;8.00;4.00;;;28.80;40.70;;;;;;5014427;28;20427;-81
2021/06/14 12:46:01;;;;;;;5.53;4.73;;;28.80;43.70;;;;;;5013153;28;20472;-81
2021/06/14 12:48:28;;;;;;;4.53;4.13;;;28.90;40.40;;;;;;5013033;28;20449;-80
2021/06/14 12:50:56;;;;;;;4.30;3.90;;;28.90;40.80;;;;;;5012526;28;20472;-80
2021/06/14 12:53:26;;;;;;;5.33;4.30;;;28.80;38.00;;;;;;5015132;28;20425;-80
2021/06/14 12:55:55;;;;;;;5.53;4.50;;;28.80;42.00;;;;;;5028418;28;20444;-80
2021/06/14 12:58:25;;;;;;;4.47;4.07;;;28.70;42.90;;;;;;5035401;28;20789;-80
2021/06/14 13:00:58;;;;;;;5.80;4.23;;;28.80;40.30;;;;;;5023582;28;20800;-80
2021/06/14 13:03:33;;;;;;;6.40;4.50;;;28.90;42.10;;;;;;5015541;28;20425;-80
2021/06/14 13:06:00;;;;;;;7.50;4.07;;;28.90;41.00;;;;;;5015331;28;20464;-79
2021/06/14 13:08:36;;;;;;;4.87;4.40;;;28.90;41.30;;;;;;5014001;28;20451;-80